Time;durP1;ratioP1;P1;durP2;ratioP2;P2;SDS_P1;SDS_P2;PMS_P1;PMS_P2;Temp;Humidity;BMP_temperature;BMP_pressure;BME280_temperature;BME280_humidity;BME280_pressure;Samples;Min_cycle;Max_cycle;Signal;HPM_P1;HPM_P2
2022/11/02 00:00:32;;;;;;;1999.90;999.90;;;;;;;15.25;100.00;98464.44;5101502;28;20052;-73
2022/11/02 00:02:58;;;;;;;1999.90;999.90;;;;;;;15.23;100.00;98463.91;5100604;28;20027;-73
2022/11/02 00:05:25;;;;;;;1999.90;999.90;;;;;;;15.19;100.00;98467.63;5102137;28;20027;-73
2022/11/02 00:07:54;;;;;;;1999.90;999.90;;;;;;;15.17;100.00;98467.09;5104900;28;20058;-73
2022/11/02 00:10:21;;;;;;;1999.90;999.90;;;;;;;15.19;100.00;98473.13;5083681;28;20459;-72
2022/11/02 00:12:47;;;;;;;1999.90;999.90;;;;;;;15.19;100.00;98473.13;5100855;28;20103;-71
2022/11/02 00:15:13;;;;;;;1999.90;999.90;;;;;;;15.24;100.00;98481.25;5100895;28;20028;-72
2022/11/02 00:17:46;;;;;;;1999.90;999.90;;;;;;;15.26;100.00;98474.31;5102066;28;20089;-72
2022/11/02 00:20:14;;;;;;;1999.90;999.90;;;;;;;15.24;100.00;98476.56;5103806;28;20034;-73
2022/11/02 00:22:43;;;;;;;1999.90;999.90;;;;;;;15.26;100.00;98479.00;5100080;28;20046;-72
2022/11/02 00:25:11;;;;;;;1999.90;999.90;;;;;;;15.41;100.00;98481.41;5099166;28;20053;-72
2022/11/02 00:27:38;;;;;;;1999.90;999.90;;;;;;;15.37;100.00;98474.88;5101523;28;20032;-72
2022/11/02 00:30:04;;;;;;;1999.90;999.90;;;;;;;15.33;100.00;98476.63;5109163;28;20036;-72
2022/11/02 00:32:30;;;;;;;1999.90;999.90;;;;;;;15.38;100.00;98476.53;5112371;28;20023;-72
2022/11/02 00:34:55;;;;;;;1999.90;999.90;;;;;;;15.39;100.00;98472.63;5112075;28;20484;-72
2022/11/02 00:37:20;;;;;;;1999.90;999.90;;;;;;;15.41;100.00;98471.16;5112263;28;20110;-72
2022/11/02 00:39:45;;;;;;;1999.90;999.90;;;;;;;15.36;100.00;98467.72;5112039;28;20460;-72
2022/11/02 00:42:11;;;;;;;1999.90;999.90;;;;;;;15.27;100.00;98467.69;5112378;28;20050;-72
2022/11/02 00:44:36;;;;;;;1999.90;999.90;;;;;;;15.24;100.00;98473.00;5112091;28;20027;-71
2022/11/02 00:47:01;;;;;;;1999.90;999.90;;;;;;;15.29;100.00;98476.44;5111535;28;20081;-73
2022/11/02 00:49:27;;;;;;;1999.90;999.90;;;;;;;15.16;100.00;98469.03;5112526;28;20032;-74
2022/11/02 00:51:52;;;;;;;1999.90;999.90;;;;;;;15.05;100.00;98472.34;5113240;28;20027;-73
2022/11/02 00:54:18;;;;;;;1999.90;999.90;;;;;;;15.18;100.00;98465.97;5113609;28;20033;-73
2022/11/02 00:56:43;;;;;;;1999.90;999.90;;;;;;;15.21;100.00;98470.88;5114585;28;20062;-74
2022/11/02 00:59:08;;;;;;;1999.90;999.90;;;;;;;15.12;100.00;98456.22;5115929;28;20058;-74
2022/11/02 01:01:34;;;;;;;1999.90;999.90;;;;;;;15.14;100.00;98463.03;5118550;28;20036;-74
2022/11/02 01:03:59;;;;;;;1999.90;999.90;;;;;;;15.14;100.00;98454.75;5110930;28;20040;-74
2022/11/02 01:06:24;;;;;;;1999.90;999.90;;;;;;;15.11;100.00;98454.56;5093327;28;20045;-74
2022/11/02 01:08:50;;;;;;;1999.90;999.90;;;;;;;15.03;100.00;98447.88;5111709;28;20437;-74
2022/11/02 01:11:17;;;;;;;1999.90;999.90;;;;;;;14.99;100.00;98447.69;5112207;28;20069;-74
2022/11/02 01:13:43;;;;;;;1999.90;999.90;;;;;;;15.00;100.00;98449.28;5112389;28;20024;-73
2022/11/02 01:16:09;;;;;;;1999.90;999.90;;;;;;;14.96;100.00;98458.50;5100255;28;20032;-74
2022/11/02 01:18:34;;;;;;;1999.90;999.90;;;;;;;14.84;100.00;98455.50;5101722;28;20030;-73
2022/11/02 01:21:00;;;;;;;1999.90;999.90;;;;;;;14.82;100.00;98460.47;5106153;28;20039;-76
2022/11/02 01:23:26;;;;;;;1999.90;999.90;;;;;;;14.67;100.00;98461.66;5111578;28;20027;-74
2022/11/02 01:25:51;;;;;;;1999.90;999.90;;;;;;;14.54;100.00;98456.97;5112004;28;20047;-75
2022/11/02 01:28:17;;;;;;;1999.90;999.90;;;;;;;14.47;100.00;98459.34;5111587;28;20476;-74
2022/11/02 01:30:42;;;;;;;1999.90;999.90;;;;;;;14.40;100.00;98453.44;5106764;28;20086;-74
2022/11/02 01:33:08;;;;;;;1999.90;999.90;;;;;;;14.30;100.00;98448.13;5111459;28;20040;-73
2022/11/02 01:35:36;;;;;;;1999.90;999.90;;;;;;;14.23;100.00;98445.78;5110354;28;20168;-77
2022/11/02 01:38:01;;;;;;;1999.90;999.90;;;;;;;14.16;100.00;98450.88;5110435;28;20153;-75
2022/11/02 01:40:33;;;;;;;1999.90;999.90;;;;;;;14.03;100.00;98450.88;5111243;28;20118;-75
2022/11/02 01:42:58;;;;;;;1999.90;999.90;;;;;;;14.00;100.00;98457.00;5113384;28;20056;-76
2022/11/02 01:45:23;;;;;;;1999.90;999.90;;;;;;;13.98;100.00;98453.72;5111667;28;20467;-73
2022/11/02 01:47:49;;;;;;;1999.90;999.90;;;;;;;13.91;100.00;98456.88;5110882;28;20134;-74
2022/11/02 01:50:19;;;;;;;1999.90;999.90;;;;;;;13.86;100.00;98451.47;5111136;28;20114;-75
2022/11/02 01:52:45;;;;;;;1999.90;999.90;;;;;;;13.83;100.00;98447.41;5110997;28;20484;-74
2022/11/02 01:55:18;;;;;;;1999.90;999.90;;;;;;;13.72;100.00;98443.19;5111076;28;20027;-74
2022/11/02 01:57:48;;;;;;;1999.90;999.90;;;;;;;13.69;100.00;98459.53;5112259;28;20383;-76
2022/11/02 02:00:15;;;;;;;1999.90;999.90;;;;;;;13.70;100.00;98452.88;5124675;28;20039;-75
2022/11/02 02:02:50;;;;;;;1999.90;999.90;;;;;;;13.84;100.00;98453.72;5123191;28;20027;-74
2022/11/02 02:05:17;;;;;;;1999.90;999.90;;;;;;;13.84;100.00;98460.06;5123783;28;20085;-75
2022/11/02 02:07:43;;;;;;;1999.90;999.90;;;;;;;13.77;100.00;98462.38;5123476;28;20032;-76
2022/11/02 02:10:08;;;;;;;1999.90;999.90;;;;;;;13.77;100.00;98458.81;5120798;28;20487;-76
2022/11/02 02:12:36;;;;;;;1999.90;999.90;;;;;;;13.69;100.00;98452.06;5122120;28;20070;-77
2022/11/02 02:15:02;;;;;;;1999.90;999.90;;;;;;;13.59;100.00;98456.94;5123618;28;20042;-77
2022/11/02 02:17:37;;;;;;;1999.90;999.90;;;;;;;13.56;100.00;98452.06;5121801;28;20110;-77
2022/11/02 02:20:06;;;;;;;1999.90;999.90;;;;;;;13.46;100.00;98458.53;5116555;28;20072;-74
2022/11/02 02:22:40;;;;;;;1999.90;999.90;;;;;;;13.51;100.00;98460.38;5095064;28;20508;-72
2022/11/02 02:25:33;;;;;;;1999.90;999.90;;;;;;;13.58;100.00;98460.81;5094498;28;20066;-74
2022/11/02 02:28:13;;;;;;;1999.90;999.90;;;;;;;13.49;100.00;98459.88;5094359;28;20054;-74
2022/11/02 02:30:45;;;;;;;1999.90;999.90;;;;;;;13.51;100.00;98461.19;5094406;28;20373;-75
2022/11/02 02:33:17;;;;;;;1999.90;999.90;;;;;;;13.51;100.00;98460.38;5094201;28;20059;-75
2022/11/02 02:35:47;;;;;;;1999.90;999.90;;;;;;;13.47;100.00;98454.66;5094187;28;20385;-75
2022/11/02 02:38:45;;;;;;;1999.90;999.90;;;;;;;13.43;100.00;98455.56;5094267;28;20027;-75
2022/11/02 02:41:29;;;;;;;1999.90;999.90;;;;;;;13.46;100.00;98457.72;5093813;28;20088;-74
2022/11/02 02:43:57;;;;;;;1999.90;999.90;;;;;;;13.55;100.00;98451.22;5094308;28;20041;-75
2022/11/02 02:47:01;;;;;;;1999.90;999.90;;;;;;;13.43;100.00;98458.31;5094179;28;20076;-74
2022/11/02 02:49:37;;;;;;;1999.90;999.90;;;;;;;13.41;100.00;98453.13;5075839;28;20032;-74
2022/11/02 02:52:02;;;;;;;1999.90;999.90;;;;;;;13.40;100.00;98455.06;5094319;28;20110;-74
2022/11/02 02:54:37;;;;;;;1999.90;999.90;;;;;;;13.33;100.00;98462.88;5093762;28;20107;-74
2022/11/02 02:57:08;;;;;;;1999.90;999.90;;;;;;;13.32;100.00;98463.16;5094027;28;20027;-73
2022/11/02 02:59:40;;;;;;;1999.90;999.90;;;;;;;13.24;100.00;98466.63;5094089;28;20028;-72
2022/11/02 03:02:13;;;;;;;1999.90;999.90;;;;;;;13.16;100.00;98464.53;5093996;28;20023;-74
2022/11/02 03:04:38;;;;;;;1999.90;999.90;;;;;;;13.13;100.00;98471.44;5093845;28;20131;-75
2022/11/02 03:07:04;;;;;;;1999.90;999.90;;;;;;;13.00;100.00;98474.13;5093978;28;20490;-75
2022/11/02 03:09:50;;;;;;;1999.90;999.90;;;;;;;12.77;100.00;98471.16;5096056;28;20035;-75
2022/11/02 03:12:21;;;;;;;1999.90;999.90;;;;;;;12.61;100.00;98475.22;5102467;28;20115;-75
2022/11/02 03:14:59;;;;;;;1999.90;999.90;;;;;;;12.55;100.00;98473.66;5093677;28;20024;-74
2022/11/02 03:18:01;;;;;;;1999.90;999.90;;;;;;;12.43;100.00;98473.28;5093177;28;20111;-74
2022/11/02 03:20:34;;;;;;;1999.90;999.90;;;;;;;12.36;100.00;98472.81;5093505;28;20039;-74
2022/11/02 03:23:22;;;;;;;1999.90;999.90;;;;;;;12.38;100.00;98475.25;5093743;28;20484;-74
2022/11/02 03:25:59;;;;;;;1999.90;999.90;;;;;;;12.32;100.00;98464.34;5092498;28;20032;-74
2022/11/02 03:29:02;;;;;;;1999.90;999.90;;;;;;;12.26;100.00;98464.72;5092298;28;20040;-74
2022/11/02 03:31:56;;;;;;;1999.90;999.90;;;;;;;12.16;100.00;98467.56;5079502;28;20409;-75
2022/11/02 03:34:27;;;;;;;1999.90;999.90;;;;;;;12.13;100.00;98468.16;5093036;28;20020;-74
2022/11/02 03:37:27;;;;;;;1999.90;999.90;;;;;;;12.11;100.00;98468.47;5092796;28;20016;-74
2022/11/02 03:40:00;;;;;;;1999.90;999.90;;;;;;;12.04;100.00;98458.94;5092740;28;20127;-74
2022/11/02 03:42:29;;;;;;;1999.90;999.90;;;;;;;12.00;100.00;98469.69;5093479;28;20082;-74
2022/11/02 03:45:00;;;;;;;1999.90;999.90;;;;;;;11.97;100.00;98466.69;5093076;28;20024;-74
2022/11/02 03:47:29;;;;;;;1999.90;999.90;;;;;;;11.97;100.00;98474.94;5092977;28;20442;-74
2022/11/02 03:49:57;;;;;;;1999.90;999.90;;;;;;;12.00;100.00;98477.91;5093654;28;20422;-73
2022/11/02 03:52:27;;;;;;;1999.90;999.90;;;;;;;12.02;100.00;98480.38;5095042;28;20024;-76
2022/11/02 03:55:04;;;;;;;1999.90;999.90;;;;;;;11.87;100.00;98481.38;5096349;28;20019;-74
2022/11/02 03:57:58;;;;;;;1999.90;999.90;;;;;;;11.88;100.00;98488.47;5096279;28;20150;-73
2022/11/02 04:00:27;;;;;;;1999.90;999.90;;;;;;;11.88;100.00;98482.16;5075923;28;20173;-73
2022/11/02 04:02:56;;;;;;;1999.90;999.90;;;;;;;11.83;100.00;98488.53;5092610;28;20493;-75
2022/11/02 04:05:29;;;;;;;1999.90;999.90;;;;;;;11.85;100.00;98489.03;5092726;28;20188;-74
2022/11/02 04:14:36;;;;;;;1999.90;999.90;;;;;;;11.75;100.00;98484.47;5092609;28;20089;-74
2022/11/02 04:16:09;;;;;;;1999.90;999.90;;;;;;;11.64;100.00;98491.16;5092396;28;20486;-74
2022/11/02 04:21:18;;;;;;;1999.90;999.90;;;;;;;11.55;100.00;98492.06;5099854;28;20748;-75
2022/11/02 04:26:27;;;;;;;1999.90;999.90;;;;;;;11.57;100.00;98498.88;5101970;28;20035;-75
2022/11/02 04:28:52;;;;;;;1999.90;999.90;;;;;;;11.52;100.00;98490.72;5092833;28;20036;-74
2022/11/02 04:31:18;;;;;;;1999.90;999.90;;;;;;;11.51;100.00;98488.25;5074057;28;20024;-74
2022/11/02 04:33:43;;;;;;;1999.90;999.90;;;;;;;11.38;100.00;98495.22;5092350;28;20020;-75
2022/11/02 04:36:08;;;;;;;1999.90;999.90;;;;;;;11.35;100.00;98494.97;5097077;28;20080;-75
2022/11/02 04:38:40;;;;;;;1999.90;999.90;;;;;;;11.24;100.00;98499.72;5097917;28;20124;-77
2022/11/02 04:41:42;;;;;;;1999.90;999.90;;;;;;;11.18;100.00;98496.19;5092603;28;20105;-75
2022/11/02 04:44:09;;;;;;;1999.90;999.90;;;;;;;11.22;100.00;98497.25;5112619;28;20105;-73
2022/11/02 04:46:36;;;;;;;1999.90;999.90;;;;;;;11.19;100.00;98502.50;5111973;28;20076;-74
2022/11/02 04:49:02;;;;;;;1999.90;999.90;;;;;;;11.18;100.00;98506.34;5111694;28;20023;-75
2022/11/02 04:51:29;;;;;;;1999.90;999.90;;;;;;;11.11;100.00;98508.59;5111800;28;20071;-74
2022/11/02 04:53:56;;;;;;;1999.90;999.90;;;;;;;10.97;100.00;98511.13;5105372;28;20385;-74
2022/11/02 04:56:22;;;;;;;1999.90;999.90;;;;;;;10.90;100.00;98504.38;5094430;28;20032;-75
2022/11/02 04:58:49;;;;;;;1999.90;999.90;;;;;;;10.83;100.00;98507.41;5091286;28;20115;-75
2022/11/02 05:01:16;;;;;;;1999.90;999.90;;;;;;;10.92;100.00;98497.50;5091366;28;20349;-73
2022/11/02 05:03:42;;;;;;;1999.90;999.90;;;;;;;10.97;100.00;98510.31;5090680;28;20408;-74
2022/11/02 05:06:11;;;;;;;1999.90;999.90;;;;;;;10.86;100.00;98489.59;5090930;28;20032;-74
2022/11/02 05:08:36;;;;;;;1999.90;999.90;;;;;;;10.96;100.00;98508.69;5091091;28;20396;-75
2022/11/02 05:11:03;;;;;;;1999.90;999.90;;;;;;;10.87;100.00;98511.19;5090894;28;20051;-74
2022/11/02 05:13:28;;;;;;;1999.90;999.90;;;;;;;10.81;100.00;98519.75;5091864;28;20039;-74
2022/11/02 05:15:55;;;;;;;1999.90;999.90;;;;;;;10.63;100.00;98499.31;5091286;28;20415;-75
2022/11/02 05:18:21;;;;;;;1999.90;999.90;;;;;;;10.84;100.00;98514.50;5091201;28;20024;-74
2022/11/02 05:20:54;;;;;;;1999.90;999.90;;;;;;;10.90;100.00;98515.31;5077039;28;20043;-79
2022/11/02 05:23:21;;;;;;;1999.90;999.90;;;;;;;10.77;100.00;98511.28;5095878;28;20024;-75
2022/11/02 05:25:52;;;;;;;1999.90;999.90;;;;;;;10.68;100.00;98510.25;5091067;28;20028;-74
2022/11/02 05:28:18;;;;;;;1999.90;999.90;;;;;;;10.74;100.00;98517.31;5091798;28;20447;-75
2022/11/02 05:30:43;;;;;;;1999.90;999.90;;;;;;;10.68;100.00;98513.78;5100465;28;20057;-72
2022/11/02 05:33:08;;;;;;;1999.90;999.90;;;;;;;10.67;100.00;98522.28;5111388;28;20047;-73
2022/11/02 05:35:33;;;;;;;1999.90;999.90;;;;;;;10.60;100.00;98522.59;5111201;28;20016;-74
2022/11/02 05:37:59;;;;;;;1999.90;999.90;;;;;;;10.52;100.00;98523.19;5110887;28;20502;-74
2022/11/02 05:40:24;;;;;;;1999.90;999.90;;;;;;;10.56;100.00;98524.25;5111544;28;20380;-74
2022/11/02 05:42:49;;;;;;;1999.90;999.90;;;;;;;10.51;100.00;98518.81;5112233;28;20024;-74
2022/11/02 05:45:15;;;;;;;1999.90;999.90;;;;;;;10.61;100.00;98526.16;5111104;28;20176;-74
2022/11/02 05:47:40;;;;;;;1999.90;999.90;;;;;;;10.58;100.00;98524.78;5111079;28;20370;-75
2022/11/02 05:50:06;;;;;;;1999.90;999.90;;;;;;;10.62;100.00;98530.50;5110969;28;20027;-75
2022/11/02 05:52:31;;;;;;;1999.90;999.90;;;;;;;10.60;100.00;98533.53;5110998;28;20035;-73
2022/11/02 05:54:56;;;;;;;1999.90;999.90;;;;;;;10.52;100.00;98536.03;5110837;28;20020;-72
2022/11/02 05:57:22;;;;;;;1999.90;999.90;;;;;;;10.60;100.00;98535.44;5110746;28;20129;-72
2022/11/02 05:59:47;;;;;;;1999.90;999.90;;;;;;;10.59;100.00;98547.47;5110888;28;20213;-74
2022/11/02 06:02:12;;;;;;;1999.90;999.90;;;;;;;10.67;100.00;98550.47;5110601;28;20114;-74
2022/11/02 06:04:37;;;;;;;1999.90;999.90;;;;;;;10.65;100.00;98555.38;5110577;28;20085;-74
2022/11/02 06:07:03;;;;;;;1999.90;999.90;;;;;;;10.72;100.00;98553.16;5110524;28;20042;-74
2022/11/02 06:09:28;;;;;;;1999.90;999.90;;;;;;;10.78;100.00;98543.00;5089056;28;20114;-73
2022/11/02 06:11:55;;;;;;;1999.90;999.90;;;;;;;10.78;100.00;98556.69;5110669;28;20035;-73
2022/11/02 06:14:23;;;;;;;1999.90;999.90;;;;;;;10.83;100.00;98553.94;5111082;28;20035;-74
2022/11/02 06:16:51;;;;;;;1999.90;999.90;;;;;;;11.01;100.00;98555.19;5110885;28;20027;-73
2022/11/02 06:19:16;;;;;;;1999.90;999.90;;;;;;;11.22;100.00;98560.25;5093950;28;20095;-72
2022/11/02 06:21:44;;;;;;;1999.90;999.90;;;;;;;11.24;100.00;98568.97;5110766;28;20110;-73
2022/11/02 06:24:13;;;;;;;1999.90;999.90;;;;;;;11.37;100.00;98564.78;5104238;28;20131;-73
2022/11/02 06:26:38;;;;;;;1999.90;999.90;;;;;;;11.46;100.00;98563.09;5100110;28;20115;-73
2022/11/02 06:29:07;;;;;;;1999.90;999.90;;;;;;;11.57;100.00;98569.28;5101353;28;20111;-73
2022/11/02 06:31:32;;;;;;;1999.90;999.90;;;;;;;11.65;100.00;98572.22;5094435;28;20020;-73
2022/11/02 06:33:57;;;;;;;1999.90;999.90;;;;;;;11.84;100.00;98575.13;5092281;28;20024;-74
2022/11/02 06:36:22;;;;;;;1999.90;999.90;;;;;;;12.13;100.00;98583.34;5100600;28;20081;-73
2022/11/02 06:38:51;;;;;;;1999.90;999.90;;;;;;;12.32;100.00;98584.22;5099308;28;20024;-73
2022/11/02 06:41:16;;;;;;;1999.90;999.90;;;;;;;12.60;100.00;98594.34;5099352;28;20024;-76
2022/11/02 06:43:41;;;;;;;1999.90;999.90;;;;;;;12.89;100.00;98597.81;5098281;28;20496;-73
2022/11/02 06:46:07;;;;;;;1999.90;999.90;;;;;;;13.08;100.00;98597.03;5104570;28;20059;-75
2022/11/02 06:48:32;;;;;;;1999.90;999.90;;;;;;;13.31;100.00;98601.69;5109991;28;20492;-75
2022/11/02 06:50:58;;;;;;;1999.90;999.90;;;;;;;13.44;100.00;98603.66;5114046;28;20039;-73
2022/11/02 06:53:23;;;;;;;1999.90;999.90;;;;;;;13.58;100.00;98612.81;5113847;28;20019;-74
2022/11/02 06:55:59;;;;;;;1999.90;999.90;;;;;;;13.75;100.00;98615.81;5113890;28;20361;-74
2022/11/02 06:58:26;;;;;;;1999.90;999.90;;;;;;;14.12;100.00;98625.13;5115468;28;20047;-86
2022/11/02 07:01:00;;;;;;;1999.90;999.90;;;;;;;14.79;100.00;98616.16;5095490;28;20023;-87
2022/11/02 07:03:26;;;;;;;1999.90;999.90;;;;;;;15.39;100.00;98627.00;5114357;28;20048;-85
2022/11/02 07:05:52;;;;;;;1999.90;999.90;;;;;;;15.63;100.00;98638.59;5116354;28;20044;-83
2022/11/02 07:08:18;;;;;;;1999.90;999.90;;;;;;;16.03;100.00;98637.66;5117562;28;20042;-82
2022/11/02 07:10:47;;;;;;;1999.90;999.90;;;;;;;16.25;100.00;98644.28;5117802;28;20028;-79
2022/11/02 07:13:13;;;;;;;1999.90;999.90;;;;;;;17.43;100.00;98636.00;5119799;28;20000;-83
2022/11/02 07:15:38;;;;;;;1999.90;999.90;;;;;;;17.67;100.00;98641.91;5100307;28;20039;-75
2022/11/02 07:18:07;;;;;;;1999.90;999.90;;;;;;;18.45;100.00;98645.44;5093098;28;20798;-77
2022/11/02 07:20:34;;;;;;;1999.90;999.90;;;;;;;18.59;100.00;98651.59;5092697;28;20046;-75
2022/11/02 07:23:00;;;;;;;1999.90;999.90;;;;;;;18.18;100.00;98655.75;5092343;28;20030;-76
2022/11/02 07:25:27;;;;;;;1999.90;999.90;;;;;;;18.54;100.00;98654.56;5091908;28;20016;-75
2022/11/02 07:27:53;;;;;;;1999.90;999.90;;;;;;;19.13;100.00;98667.41;5092459;28;20024;-78
2022/11/02 07:30:19;;;;;;;1999.90;999.90;;;;;;;19.31;100.00;98664.50;5096751;28;20024;-79
2022/11/02 07:32:45;;;;;;;1999.90;999.90;;;;;;;19.08;100.00;98670.34;5095293;28;20055;-77
2022/11/02 07:35:12;;;;;;;1999.90;999.90;;;;;;;19.03;100.00;98678.84;5092441;28;20366;-76
2022/11/02 07:37:37;;;;;;;1999.90;999.90;;;;;;;19.03;100.00;98684.41;5092182;28;20032;-77
2022/11/02 07:40:05;;;;;;;1999.90;999.90;;;;;;;19.10;100.00;98679.16;5091963;28;20031;-76
2022/11/02 07:42:30;;;;;;;1999.90;999.90;;;;;;;19.47;100.00;98679.47;5092388;28;20032;-75
2022/11/02 07:44:55;;;;;;;1999.90;999.90;;;;;;;18.91;100.00;98672.38;5092023;28;20035;-74
2022/11/02 07:47:21;;;;;;;1999.90;999.90;;;;;;;18.73;100.00;98675.19;5091735;28;20032;-75
2022/11/02 07:49:46;;;;;;;1999.90;999.90;;;;;;;19.91;100.00;98673.28;5092105;28;20038;-78
2022/11/02 07:52:12;;;;;;;1999.90;999.90;;;;;;;19.83;100.00;98674.16;5092062;28;20040;-77
2022/11/02 07:54:37;;;;;;;1999.90;999.90;;;;;;;20.20;92.67;98681.53;5092088;28;20111;-79
2022/11/02 07:57:02;;;;;;;1999.90;999.90;;;;;;;20.43;88.30;98672.84;5090611;28;20024;-77
2022/11/02 07:59:28;;;;;;;1999.90;999.90;;;;;;;20.86;84.08;98676.00;5092257;28;20055;-76
2022/11/02 08:01:53;;;;;;;1999.90;999.90;;;;;;;21.00;81.82;98673.69;5092732;28;20036;-78
2022/11/02 08:04:18;;;;;;;1999.90;999.90;;;;;;;20.99;80.16;98683.19;5092331;28;20044;-76
2022/11/02 08:06:44;;;;;;;1999.90;999.90;;;;;;;21.08;79.16;98683.88;5092588;28;20032;-77
2022/11/02 08:09:09;;;;;;;1999.90;999.90;;;;;;;20.74;79.51;98682.31;5105548;28;20132;-76
2022/11/02 08:11:36;;;;;;;1999.90;999.90;;;;;;;21.34;75.22;98692.75;5102231;28;20072;-79
2022/11/02 08:14:01;;;;;;;1999.90;999.90;;;;;;;20.76;78.03;98690.34;5107936;28;20103;-74
2022/11/02 08:16:27;;;;;;;1999.90;999.90;;;;;;;20.94;78.18;98690.94;5101171;28;20122;-75
2022/11/02 08:18:53;;;;;;;1999.90;999.90;;;;;;;21.53;73.87;98694.13;5101210;28;20110;-79
2022/11/02 08:21:18;;;;;;;1999.90;999.90;;;;;;;22.49;70.11;98689.53;5101388;28;20114;-76
2022/11/02 08:23:43;;;;;;;1999.90;999.90;;;;;;;22.63;71.52;98689.91;5104916;28;20522;-75
2022/11/02 08:26:09;;;;;;;1999.90;999.90;;;;;;;22.53;69.50;98684.84;5100352;28;20042;-75
2022/11/02 08:28:38;;;;;;;1999.90;999.90;;;;;;;23.17;65.76;98681.81;5100083;28;20487;-77
2022/11/02 08:31:06;;;;;;;1999.90;999.90;;;;;;;22.90;65.15;98684.31;5100942;28;20035;-76
2022/11/02 08:33:31;;;;;;;1999.90;999.90;;;;;;;23.15;64.68;98679.38;5102383;28;20377;-74
2022/11/02 08:36:01;;;;;;;1999.90;999.90;;;;;;;23.05;64.28;98682.72;5102909;28;20020;-75
2022/11/02 08:38:27;;;;;;;1999.90;999.90;;;;;;;22.80;64.98;98684.06;5101480;28;20023;-77
2022/11/02 08:40:54;;;;;;;1999.90;999.90;;;;;;;22.92;66.59;98683.97;5101956;28;20131;-78
2022/11/02 08:43:19;;;;;;;1999.90;999.90;;;;;;;23.16;63.01;98686.59;5105098;28;20103;-77
2022/11/02 08:45:44;;;;;;;1999.90;999.90;;;;;;;23.60;61.07;98683.69;5102383;28;20087;-78
2022/11/02 08:48:10;;;;;;;1999.90;999.90;;;;;;;23.54;61.59;98682.34;5100718;28;20028;-75
2022/11/02 08:50:36;;;;;;;1999.90;999.90;;;;;;;24.16;59.24;98687.00;5110306;28;20557;-82
2022/11/02 08:53:02;;;;;;;1999.90;999.90;;;;;;;24.08;58.88;98683.22;5120975;28;20012;-77
2022/11/02 08:55:27;;;;;;;1999.90;999.90;;;;;;;24.30;58.20;98685.31;5117825;28;20012;-77
2022/11/02 08:57:55;;;;;;;1999.90;999.90;;;;;;;23.94;58.69;98677.28;5109053;28;20058;-76
2022/11/02 09:00:23;;;;;;;1999.90;999.90;;;;;;;24.36;57.46;98685.84;5104903;28;20476;-75
2022/11/02 09:03:23;;;;;;;1999.90;999.90;;;;;;;24.29;56.16;98680.91;5103489;28;20024;-75
2022/11/02 09:05:49;;;;;;;1999.90;999.90;;;;;;;24.06;56.57;98668.78;5055472;28;20047;-75
2022/11/02 09:08:19;;;;;;;1999.90;999.90;;;;;;;24.22;57.04;98669.56;5067934;28;20677;-78
2022/11/02 09:10:48;;;;;;;1999.90;999.90;;;;;;;23.67;59.04;98672.69;5057762;28;20566;-78
2022/11/02 09:13:14;;;;;;;1999.90;999.90;;;;;;;23.60;58.96;98666.94;5051489;28;20527;-76
2022/11/02 09:15:40;;;;;;;1999.90;999.90;;;;;;;23.15;60.13;98662.63;5067594;28;20013;-75
2022/11/02 09:18:07;;;;;;;1999.90;999.90;;;;;;;24.32;56.60;98673.75;5068862;28;20064;-76
2022/11/02 09:20:33;;;;;;;1999.90;999.90;;;;;;;24.20;57.19;98663.53;5067394;28;20039;-78
2022/11/02 09:22:58;;;;;;;1999.90;999.90;;;;;;;24.31;56.66;98663.72;5069154;28;20484;-77
2022/11/02 09:25:24;;;;;;;1999.90;999.90;;;;;;;23.90;58.32;98659.66;5068939;28;20021;-77
2022/11/02 09:27:53;;;;;;;1999.90;999.90;;;;;;;23.55;60.30;98653.25;5069683;28;20051;-77
2022/11/02 09:30:20;;;;;;;1999.90;999.90;;;;;;;24.75;56.09;98661.41;5074983;28;20036;-79
2022/11/02 09:33:03;;;;;;;1999.90;999.90;;;;;;;24.84;55.09;98664.81;5063161;28;20043;-81
2022/11/02 09:35:31;;;;;;;1999.90;999.90;;;;;;;24.73;55.72;98660.97;5074351;28;20071;-81
2022/11/02 09:37:57;;;;;;;1999.90;999.90;;;;;;;23.87;59.15;98655.59;5069338;28;20016;-82
2022/11/02 09:40:24;;;;;;;1999.90;999.90;;;;;;;24.62;57.45;98657.97;5070206;28;20540;-79
2022/11/02 09:43:32;;;;;;;1999.90;999.90;;;;;;;25.67;55.15;98665.81;5073932;28;20407;-80
2022/11/02 09:46:03;;;;;;;1999.90;999.90;;;;;;;23.89;57.88;98655.22;5070975;28;20030;-80
2022/11/02 09:48:35;;;;;;;1999.90;999.90;;;;;;;24.92;55.78;98655.34;5069254;28;20080;-80
2022/11/02 09:51:13;;;;;;;1999.90;999.90;;;;;;;25.00;55.47;98654.28;5072715;28;20024;-81
2022/11/02 09:53:46;;;;;;;1999.90;999.90;;;;;;;23.98;59.06;98644.66;5062678;28;20028;-80
2022/11/02 09:56:15;;;;;;;1999.90;999.90;;;;;;;23.96;60.72;98649.81;5076036;28;20465;-82
2022/11/02 09:58:44;;;;;;;1999.90;999.90;;;;;;;25.13;55.76;98650.13;5070891;28;20036;-82
2022/11/02 10:01:39;;;;;;;1999.90;999.90;;;;;;;24.90;56.09;98647.31;5068989;28;20029;-79
2022/11/02 10:04:23;;;;;;;1999.90;999.90;;;;;;;25.14;55.54;98650.94;5063316;28;20489;-81
2022/11/02 10:07:17;;;;;;;1999.90;999.90;;;;;;;24.17;58.37;98636.31;5071726;28;20039;-78
2022/11/02 10:10:00;;;;;;;1999.90;999.90;;;;;;;25.34;54.59;98644.88;5072833;28;20474;-81
2022/11/02 10:12:58;;;;;;;1999.90;999.90;;;;;;;24.95;57.05;98637.81;5073719;28;20496;-80
2022/11/02 10:15:35;;;;;;;1999.90;999.90;;;;;;;25.83;53.83;98639.25;5078979;28;20028;-85
2022/11/02 10:18:02;;;;;;;1999.90;999.90;;;;;;;25.32;54.09;98638.84;5077491;28;20029;-81
2022/11/02 10:20:49;;;;;;;1999.90;999.90;;;;;;;25.46;52.97;98625.06;5082561;28;20036;-79
2022/11/02 10:23:38;;;;;;;1999.90;999.90;;;;;;;25.56;52.30;98635.63;5087150;28;20025;-82
2022/11/02 10:26:03;;;;;;;1999.90;999.90;;;;;;;24.51;55.29;98635.38;5078901;28;20413;-81
2022/11/02 10:28:35;;;;;;;1999.90;999.90;;;;;;;25.15;54.04;98630.97;5081700;28;20041;-80
2022/11/02 10:31:02;;;;;;;1999.90;999.90;;;;;;;25.01;53.12;98625.13;5074963;28;20025;-82
2022/11/02 10:33:29;;;;;;;1999.90;999.90;;;;;;;24.46;54.98;98609.72;5059951;28;20017;-77
2022/11/02 10:36:26;;;;;;;1999.90;999.90;;;;;;;24.66;55.67;98613.25;5059833;28;20075;-81
2022/11/02 10:39:03;;;;;;;1999.90;999.90;;;;;;;24.13;56.67;98612.22;5059508;28;20094;-78
2022/11/02 10:41:43;;;;;;;1999.90;999.90;;;;;;;24.34;57.09;98607.09;5060546;28;20038;-75
2022/11/02 10:44:27;;;;;;;1999.90;999.90;;;;;;;25.08;54.06;98608.44;5068972;28;20543;-74
2022/11/02 10:47:03;;;;;;;1999.90;999.90;;;;;;;25.15;53.66;98597.38;5054627;28;20033;-73
2022/11/02 10:49:54;;;;;;;1999.90;999.90;;;;;;;24.63;55.76;98591.59;5052817;28;20044;-74
2022/11/02 10:52:20;;;;;;;1999.90;999.90;;;;;;;24.90;53.99;98590.53;5053793;28;20121;-74
2022/11/02 10:54:49;;;;;;;1999.90;999.90;;;;;;;24.75;54.87;98597.84;5053561;28;20443;-74
2022/11/02 10:57:22;;;;;;;1999.90;999.90;;;;;;;24.54;55.39;98594.66;5053713;28;20032;-74
2022/11/02 11:00:29;;;;;;;1999.90;999.90;;;;;;;24.41;55.41;98585.63;5053680;28;20063;-73
2022/11/02 11:03:24;;;;;;;1999.90;999.90;;;;;;;24.21;55.35;98577.66;5045006;28;20513;-74
2022/11/02 11:05:49;;;;;;;1999.90;999.90;;;;;;;24.26;56.09;98571.75;5040224;28;20095;-73
2022/11/02 11:08:37;;;;;;;1999.90;999.90;;;;;;;23.58;57.87;98568.72;5053169;28;20064;-74
2022/11/02 11:11:23;;;;;;;1999.90;999.90;;;;;;;24.28;55.49;98569.38;5053363;28;20119;-75
2022/11/02 11:14:04;;;;;;;1999.90;999.90;;;;;;;23.69;56.28;98564.16;5053671;28;20059;-73